Terminal Aerodrome Forecast
Issued by NWS Portland, OR

Home | Current Version | Previous Version | Text Only | Print | Product List | Glossary On
Versions: 1 2 3 4 5 6 7 8 9 10 11 12 13 14
000
FTUS46 KPQR 271720
TAFSLE
TAF
KSLE 271720Z 2718/2818 35004KT P6SM BKN020 OVC035
     FM272000 32004KT P6SM BKN050
     FM272200 32005KT P6SM SKC
     FM280200 29008KT P6SM SKC
     FM281100 VRB03KT P6SM OVC015=

USA.gov is the U.S. government's official web portal to all federal, state and local government web resources and services.